createdAt,value
2022-08-28T00:00:12.882Z,3.67
2022-08-28T00:02:45.723Z,4.60
2022-08-28T00:05:19.063Z,3.07
2022-08-28T00:07:50.621Z,4.47
2022-08-28T00:10:23.981Z,3.97
2022-08-28T00:12:58.039Z,3.90
2022-08-28T00:15:34.568Z,3.90
2022-08-28T00:18:06.854Z,3.57
2022-08-28T00:20:38.915Z,3.87
2022-08-28T00:23:10.258Z,3.87
2022-08-28T00:25:41.911Z,4.20
2022-08-28T00:28:23.827Z,4.83
2022-08-28T00:30:59.064Z,3.70
2022-08-28T00:33:34.922Z,3.53
2022-08-28T00:36:06.550Z,4.18
2022-08-28T00:38:38.035Z,4.03
2022-08-28T00:41:11.019Z,3.73
2022-08-28T00:43:45.739Z,4.37
2022-08-28T00:46:21.221Z,3.73
2022-08-28T00:48:52.656Z,3.63
2022-08-28T00:51:43.499Z,3.83
2022-08-28T00:54:14.913Z,3.73
2022-08-28T00:56:47.603Z,3.40
2022-08-28T00:59:22.540Z,3.37
2022-08-28T01:01:56.911Z,3.90
2022-08-28T01:04:32.177Z,4.47
2022-08-28T01:07:09.261Z,3.65
2022-08-28T01:09:47.388Z,3.83
2022-08-28T01:12:23.695Z,3.10
2022-08-28T01:14:59.992Z,4.03
2022-08-28T01:17:34.218Z,3.40
2022-08-28T01:20:11.446Z,3.33
2022-08-28T01:23:09.726Z,3.33
2022-08-28T01:25:42.856Z,2.83
2022-08-28T01:28:14.874Z,3.20
2022-08-28T01:30:49.149Z,3.03
2022-08-28T01:33:27.820Z,3.10
2022-08-28T01:35:59.693Z,5.03
2022-08-28T01:38:31.010Z,5.27
2022-08-28T01:41:02.317Z,4.07
2022-08-28T01:43:34.021Z,3.27
2022-08-28T01:46:06.703Z,3.40
2022-08-28T01:48:41.556Z,3.83
2022-08-28T01:51:13.227Z,2.80
2022-08-28T01:53:45.405Z,2.67
2022-08-28T01:56:19.001Z,3.57
2022-08-28T01:58:50.352Z,2.90
2022-08-28T02:01:22.677Z,3.07
2022-08-28T02:03:54.055Z,3.63
2022-08-28T02:06:25.795Z,3.60
2022-08-28T02:08:57.863Z,3.23
2022-08-28T02:11:30.598Z,4.27
2022-08-28T02:14:02.892Z,3.40
2022-08-28T02:16:34.478Z,2.83
2022-08-28T02:19:06.083Z,3.60
2022-08-28T02:21:37.863Z,3.47
2022-08-28T02:24:09.257Z,3.80
2022-08-28T02:26:40.574Z,3.43
2022-08-28T02:29:12.360Z,2.83
2022-08-28T02:31:43.656Z,3.40
2022-08-28T02:34:14.984Z,3.20
2022-08-28T02:36:46.279Z,3.10
2022-08-28T02:39:17.818Z,3.17
2022-08-28T02:41:49.125Z,4.20
2022-08-28T02:44:20.584Z,3.20
2022-08-28T02:46:52.633Z,2.87
2022-08-28T02:49:25.430Z,3.00
2022-08-28T02:52:02.811Z,3.13
2022-08-28T02:54:34.971Z,4.10
2022-08-28T02:57:09.838Z,3.50
2022-08-28T02:59:43.314Z,2.70
2022-08-28T03:02:14.638Z,2.80
2022-08-28T03:04:45.983Z,3.00
2022-08-28T03:07:17.370Z,3.07
2022-08-28T03:09:50.334Z,3.83
2022-08-28T03:12:24.111Z,3.50
2022-08-28T03:14:55.561Z,3.60
2022-08-28T03:17:27.086Z,3.30
2022-08-28T03:19:58.962Z,3.83
2022-08-28T03:22:49.154Z,3.87
2022-08-28T03:25:22.197Z,3.00
2022-08-28T03:27:54.167Z,2.80
2022-08-28T03:30:25.677Z,3.60
2022-08-28T03:32:57.142Z,3.40
2022-08-28T03:35:28.617Z,2.90
2022-08-28T03:38:00.164Z,3.23
2022-08-28T03:40:32.283Z,3.70
2022-08-28T03:43:03.731Z,3.30
2022-08-28T03:45:38.925Z,3.40
2022-08-28T03:48:10.254Z,2.97
2022-08-28T03:50:41.593Z,3.43
2022-08-28T03:53:13.305Z,3.30
2022-08-28T03:55:44.636Z,3.17
2022-08-28T03:58:18.825Z,3.37
2022-08-28T04:00:51.052Z,2.97
2022-08-28T04:03:22.522Z,3.60
2022-08-28T04:05:54.016Z,3.20
2022-08-28T04:08:25.367Z,3.33
2022-08-28T04:10:59.301Z,3.17
2022-08-28T04:13:30.732Z,3.13
2022-08-28T04:16:11.976Z,3.57
2022-08-28T04:18:44.054Z,3.67
2022-08-28T04:21:18.907Z,3.20
2022-08-28T04:23:50.882Z,3.50
2022-08-28T04:26:25.446Z,3.50
2022-08-28T04:28:56.798Z,3.37
2022-08-28T04:31:31.716Z,4.10
2022-08-28T04:34:06.634Z,3.20
2022-08-28T04:36:38.144Z,3.70
2022-08-28T04:39:10.954Z,3.30
2022-08-28T04:41:42.301Z,3.60
2022-08-28T04:44:13.718Z,3.77
2022-08-28T04:46:45.024Z,3.53
2022-08-28T04:49:19.689Z,3.13
2022-08-28T04:51:51.307Z,3.23
2022-08-28T04:54:22.658Z,3.87
2022-08-28T04:56:54.089Z,3.90
2022-08-28T04:59:25.424Z,4.20
2022-08-28T05:01:56.843Z,3.53
2022-08-28T05:04:28.397Z,3.57
2022-08-28T05:06:59.898Z,3.43
2022-08-28T05:09:32.039Z,3.07
2022-08-28T05:12:04.937Z,3.03
2022-08-28T05:14:36.569Z,3.07
2022-08-28T05:17:09.336Z,3.53
2022-08-28T05:19:41.684Z,3.10
2022-08-28T05:22:13.000Z,3.03
2022-08-28T05:24:44.316Z,3.20
2022-08-28T05:27:15.617Z,3.00
2022-08-28T05:29:49.791Z,3.77
2022-08-28T05:32:21.474Z,3.97
2022-08-28T05:34:54.837Z,4.43
2022-08-28T05:37:27.617Z,3.10
2022-08-28T05:40:00.096Z,3.43
2022-08-28T05:42:33.889Z,2.90
2022-08-28T05:45:08.026Z,3.00
2022-08-28T05:47:39.449Z,3.40
2022-08-28T05:50:14.445Z,4.13
2022-08-28T05:52:45.769Z,4.07
2022-08-28T05:55:17.109Z,3.83
2022-08-28T05:57:48.522Z,2.90
2022-08-28T06:00:20.122Z,3.13
2022-08-28T06:02:51.420Z,2.63
2022-08-28T06:05:23.929Z,3.17
2022-08-28T06:07:55.229Z,2.80
2022-08-28T06:10:26.878Z,2.70
2022-08-28T06:12:58.748Z,3.43
2022-08-28T06:15:30.109Z,3.00
2022-08-28T06:18:01.434Z,3.23
2022-08-28T06:20:38.235Z,3.30
2022-08-28T06:23:11.334Z,2.57
2022-08-28T06:25:46.826Z,3.07
2022-08-28T06:28:24.704Z,3.35
2022-08-28T06:31:17.799Z,2.90
2022-08-28T06:33:47.718Z,2.83
2022-08-28T06:36:19.030Z,3.40
2022-08-28T06:38:50.875Z,2.53
2022-08-28T06:41:22.318Z,2.63
2022-08-28T06:43:54.807Z,2.53
2022-08-28T06:46:26.944Z,3.30
2022-08-28T06:48:58.431Z,2.05
2022-08-28T06:51:29.931Z,2.35
2022-08-28T06:54:01.882Z,2.35
2022-08-28T06:56:33.707Z,2.47
2022-08-28T06:59:05.549Z,2.30
2022-08-28T07:01:37.304Z,2.17
2022-08-28T07:04:11.489Z,2.40
2022-08-28T07:06:46.777Z,2.05
2022-08-28T07:09:18.968Z,1.77
2022-08-28T07:11:50.991Z,2.45
2022-08-28T07:14:23.173Z,2.17
2022-08-28T07:16:57.518Z,2.50
2022-08-28T07:19:28.817Z,2.00
2022-08-28T07:22:00.258Z,2.72
2022-08-28T07:24:31.672Z,2.33
2022-08-28T07:27:03.822Z,2.40
2022-08-28T07:29:35.532Z,2.40
2022-08-28T07:32:07.070Z,2.05
2022-08-28T07:34:40.539Z,1.70
2022-08-28T07:37:15.267Z,2.25
2022-08-28T07:39:46.725Z,2.15
2022-08-28T07:42:38.042Z,1.92
2022-08-28T07:45:09.901Z,2.03
2022-08-28T07:47:42.020Z,2.38
2022-08-28T07:50:15.108Z,2.10
2022-08-28T07:52:46.483Z,2.03
2022-08-28T07:55:17.876Z,2.35
2022-08-28T07:57:49.899Z,2.08
2022-08-28T08:00:22.877Z,1.80
2022-08-28T08:02:54.236Z,2.38
2022-08-28T08:05:25.617Z,1.95
2022-08-28T08:07:56.917Z,2.22
2022-08-28T08:10:33.834Z,2.00
2022-08-28T08:13:05.745Z,2.38
2022-08-28T08:15:39.019Z,2.08
2022-08-28T08:18:10.358Z,2.05
2022-08-28T08:20:41.873Z,2.10
2022-08-28T08:23:13.338Z,2.08
2022-08-28T08:25:59.173Z,1.65
2022-08-28T08:28:31.130Z,2.00
2022-08-28T08:31:08.305Z,1.95
2022-08-28T08:33:45.555Z,2.17
2022-08-28T08:36:20.462Z,2.00
2022-08-28T08:38:59.426Z,2.30
2022-08-28T08:41:48.046Z,2.47
2022-08-28T08:44:40.295Z,2.95
2022-08-28T08:47:30.555Z,2.00
2022-08-28T08:50:22.123Z,1.88
2022-08-28T08:53:12.250Z,2.15
2022-08-28T08:55:52.634Z,2.20
2022-08-28T08:58:36.120Z,1.90
2022-08-28T09:01:26.965Z,1.65
2022-08-28T09:04:28.654Z,2.30
2022-08-28T09:07:16.404Z,1.60
2022-08-28T09:09:52.385Z,1.42
2022-08-28T09:12:29.403Z,2.22
2022-08-28T09:15:14.342Z,2.60
2022-08-28T09:17:56.962Z,1.90
2022-08-28T09:20:33.203Z,1.92
2022-08-28T09:23:13.000Z,1.48
2022-08-28T09:25:51.678Z,1.80
2022-08-28T09:28:36.046Z,2.08
2022-08-28T09:31:13.307Z,1.92
2022-08-28T09:33:51.250Z,1.58
2022-08-28T09:36:28.383Z,1.20
2022-08-28T09:39:17.910Z,1.60
2022-08-28T09:42:33.332Z,2.15
2022-08-28T09:45:21.185Z,1.63
2022-08-28T09:47:55.841Z,1.85
2022-08-28T09:50:37.798Z,1.80
2022-08-28T09:53:09.065Z,2.30
2022-08-28T09:56:02.097Z,1.40
2022-08-28T09:58:41.199Z,1.60
2022-08-28T10:01:50.736Z,2.13
2022-08-28T10:04:40.778Z,1.70
2022-08-28T10:07:22.452Z,2.00
2022-08-28T10:10:17.639Z,1.75
2022-08-28T10:13:02.184Z,1.90
2022-08-28T10:16:06.134Z,1.92
2022-08-28T10:19:03.944Z,2.00
2022-08-28T10:21:49.342Z,1.90
2022-08-28T10:24:39.035Z,1.65
2022-08-28T10:27:32.373Z,1.38
2022-08-28T10:30:13.182Z,2.15
2022-08-28T10:32:57.257Z,2.05
2022-08-28T10:35:58.750Z,1.67
2022-08-28T10:38:47.232Z,1.50
2022-08-28T10:41:47.801Z,1.67
2022-08-28T10:44:31.791Z,1.25
2022-08-28T10:47:05.494Z,1.42
2022-08-28T10:49:41.465Z,1.27
2022-08-28T10:52:35.689Z,2.45
2022-08-28T10:55:34.592Z,1.67
2022-08-28T10:58:25.097Z,1.70
2022-08-28T11:01:02.082Z,1.50
2022-08-28T11:03:45.015Z,1.80
2022-08-28T11:06:38.483Z,1.80
2022-08-28T11:09:25.802Z,1.60
2022-08-28T11:12:04.140Z,1.80
2022-08-28T11:14:48.376Z,2.65
2022-08-28T11:17:25.631Z,1.80
2022-08-28T11:20:19.051Z,1.73
2022-08-28T11:23:10.418Z,1.50
2022-08-28T11:25:45.271Z,1.40
2022-08-28T11:28:23.965Z,1.90
2022-08-28T11:30:58.317Z,2.13
2022-08-28T11:33:45.215Z,2.10
2022-08-28T11:36:19.420Z,2.63
2022-08-28T11:38:50.676Z,1.88
2022-08-28T11:41:32.014Z,2.38
2022-08-28T11:44:09.551Z,2.10
2022-08-28T11:47:23.862Z,1.98
2022-08-28T11:49:55.210Z,1.70
2022-08-28T11:52:48.128Z,1.90
2022-08-28T11:55:32.490Z,1.75
2022-08-28T11:58:15.768Z,2.20
2022-08-28T12:01:12.803Z,2.10
2022-08-28T12:04:01.973Z,2.25
2022-08-28T12:06:45.044Z,1.60
2022-08-28T12:09:42.513Z,1.75
2022-08-28T12:12:46.227Z,1.85
2022-08-28T12:15:29.731Z,2.08
2022-08-28T12:18:05.089Z,2.20
2022-08-28T12:20:57.674Z,1.90
2022-08-28T12:23:45.199Z,2.28
2022-08-28T12:26:25.367Z,1.40
2022-08-28T12:29:07.165Z,2.42
2022-08-28T12:32:10.163Z,2.17
2022-08-28T12:35:02.121Z,1.83
2022-08-28T12:38:00.905Z,2.45
2022-08-28T12:40:50.367Z,2.22
2022-08-28T12:43:46.418Z,2.10
2022-08-28T12:46:26.978Z,1.95
2022-08-28T12:49:01.270Z,2.47
2022-08-28T12:51:36.813Z,2.35
2022-08-28T12:54:08.759Z,2.55
2022-08-28T12:56:40.250Z,2.85
2022-08-28T12:59:27.118Z,2.50
2022-08-28T13:02:07.057Z,2.67
2022-08-28T13:04:42.240Z,2.50
2022-08-28T13:07:16.962Z,2.92
2022-08-28T13:09:52.576Z,2.10
2022-08-28T13:12:34.899Z,2.50
2022-08-28T13:15:51.737Z,1.75
2022-08-28T13:18:40.317Z,2.53
2022-08-28T13:21:33.120Z,2.15
2022-08-28T13:24:24.003Z,2.13
2022-08-28T13:27:14.175Z,2.67
2022-08-28T13:29:57.398Z,2.17
2022-08-28T13:32:35.976Z,2.58
2022-08-28T13:35:22.618Z,1.95
2022-08-28T13:38:00.506Z,2.10
2022-08-28T13:40:57.497Z,2.17
2022-08-28T13:43:43.506Z,2.03
2022-08-28T13:46:14.896Z,1.90
2022-08-28T13:48:46.310Z,1.90
2022-08-28T13:51:21.179Z,1.73
2022-08-28T13:53:52.859Z,1.75
2022-08-28T13:56:25.018Z,1.92
2022-08-28T13:58:57.276Z,2.55
2022-08-28T14:01:49.412Z,2.25
2022-08-28T14:04:20.841Z,2.13
2022-08-28T14:06:52.267Z,2.08
2022-08-28T14:09:23.951Z,1.98
2022-08-28T14:11:55.720Z,1.85
2022-08-28T14:14:27.052Z,2.08
2022-08-28T14:16:58.958Z,1.98
2022-08-28T14:19:30.437Z,2.00
2022-08-28T14:22:01.821Z,2.05
2022-08-28T14:24:33.165Z,2.30
2022-08-28T14:27:04.629Z,2.97
2022-08-28T14:29:38.059Z,2.50
2022-08-28T14:32:09.451Z,2.25
2022-08-28T14:34:41.228Z,2.20
2022-08-28T14:37:13.067Z,2.10
2022-08-28T14:39:44.493Z,2.10
2022-08-28T14:42:15.936Z,2.53
2022-08-28T14:44:47.262Z,2.65
2022-08-28T14:47:18.930Z,2.38
2022-08-28T14:49:50.667Z,2.15
2022-08-28T14:52:22.799Z,2.47
2022-08-28T14:54:54.099Z,2.10
2022-08-28T14:57:25.471Z,2.45
2022-08-28T14:59:56.794Z,2.40
2022-08-28T15:02:28.246Z,2.85
2022-08-28T15:04:59.729Z,2.22
2022-08-28T15:07:31.071Z,2.30
2022-08-28T15:10:02.492Z,2.70
2022-08-28T15:12:33.838Z,2.58
2022-08-28T15:15:05.607Z,2.90
2022-08-28T15:17:36.954Z,2.47
2022-08-28T15:20:08.944Z,2.50
2022-08-28T15:22:40.287Z,2.08
2022-08-28T15:25:11.970Z,2.00
2022-08-28T15:27:43.395Z,2.22
2022-08-28T15:30:15.796Z,2.63
2022-08-28T15:32:48.698Z,2.40
2022-08-28T15:35:20.107Z,1.90
2022-08-28T15:37:51.477Z,2.15
2022-08-28T15:40:41.585Z,2.00
2022-08-28T15:43:13.236Z,2.35
2022-08-28T15:45:44.825Z,2.20
2022-08-28T15:48:16.250Z,2.08
2022-08-28T15:50:47.545Z,2.30
2022-08-28T15:53:19.351Z,2.40
2022-08-28T15:55:50.716Z,2.13
2022-08-28T15:58:22.129Z,2.05
2022-08-28T16:00:53.605Z,1.92
2022-08-28T16:03:26.454Z,2.30
2022-08-28T16:05:59.187Z,2.10
2022-08-28T16:08:31.148Z,2.42
2022-08-28T16:11:02.459Z,2.28
2022-08-28T16:13:34.040Z,2.20
2022-08-28T16:16:05.538Z,2.03
2022-08-28T16:18:37.126Z,2.58
2022-08-28T16:21:09.406Z,2.83
2022-08-28T16:23:40.838Z,2.03
2022-08-28T16:26:15.744Z,2.97
2022-08-28T16:28:47.102Z,2.27
2022-08-28T16:31:20.568Z,2.72
2022-08-28T16:33:53.470Z,2.78
2022-08-28T16:36:25.203Z,2.58
2022-08-28T16:39:03.670Z,2.70
2022-08-28T16:41:35.237Z,2.50
2022-08-28T16:44:06.643Z,2.63
2022-08-28T16:46:37.985Z,2.38
2022-08-28T16:49:10.882Z,2.38
2022-08-28T16:51:42.200Z,2.88
2022-08-28T16:54:13.625Z,2.10
2022-08-28T16:56:46.173Z,2.42
2022-08-28T16:59:20.376Z,2.65
2022-08-28T17:01:55.863Z,2.97
2022-08-28T17:04:27.197Z,2.95
2022-08-28T17:06:59.394Z,2.20
2022-08-28T17:09:31.538Z,2.60
2022-08-28T17:12:03.153Z,2.50
2022-08-28T17:14:35.670Z,2.42
2022-08-28T17:17:07.477Z,2.03
2022-08-28T17:19:39.610Z,1.95
2022-08-28T17:22:29.665Z,2.70
2022-08-28T17:25:13.431Z,1.90
2022-08-28T17:27:44.851Z,2.60
2022-08-28T17:30:18.144Z,2.63
2022-08-28T17:32:49.689Z,2.78
2022-08-28T17:35:22.001Z,2.00
2022-08-28T17:37:55.595Z,2.30
2022-08-28T17:40:27.216Z,2.30
2022-08-28T17:42:58.710Z,2.20
2022-08-28T17:45:30.209Z,2.47
2022-08-28T17:48:01.639Z,2.20
2022-08-28T17:50:33.062Z,2.20
2022-08-28T17:53:04.850Z,2.65
2022-08-28T17:55:36.373Z,2.10
2022-08-28T17:58:08.262Z,3.05
2022-08-28T18:00:41.020Z,2.10
2022-08-28T18:03:12.562Z,2.25
2022-08-28T18:05:44.033Z,3.70
2022-08-28T18:08:15.543Z,2.60
2022-08-28T18:10:47.186Z,2.50
2022-08-28T18:13:18.888Z,2.90
2022-08-28T18:15:51.403Z,2.40
2022-08-28T18:18:34.441Z,3.10
2022-08-28T18:21:12.358Z,2.20
2022-08-28T18:23:43.675Z,2.45
2022-08-28T18:26:17.403Z,2.80
2022-08-28T18:28:49.510Z,3.03
2022-08-28T18:31:20.924Z,2.60
2022-08-28T18:33:54.154Z,2.80
2022-08-28T18:36:25.753Z,2.73
2022-08-28T18:38:57.873Z,2.77
2022-08-28T18:41:44.112Z,2.43
2022-08-28T18:44:17.106Z,2.40
2022-08-28T18:46:49.750Z,2.40
2022-08-28T18:49:21.159Z,2.40
2022-08-28T18:51:53.648Z,2.53
2022-08-28T18:54:25.281Z,2.57
2022-08-28T18:57:04.306Z,2.53
2022-08-28T18:59:35.812Z,2.93
2022-08-28T19:02:07.401Z,3.13
2022-08-28T19:04:39.001Z,3.03
2022-08-28T19:07:14.094Z,2.83
2022-08-28T19:09:45.406Z,2.50
2022-08-28T19:12:16.920Z,2.93
2022-08-28T19:14:48.364Z,2.77
2022-08-28T19:17:21.181Z,2.50
2022-08-28T19:19:54.261Z,2.17
2022-08-28T19:22:25.590Z,2.90
2022-08-28T19:25:27.970Z,2.80
2022-08-28T19:28:01.667Z,3.03
2022-08-28T19:30:33.876Z,2.67
2022-08-28T19:33:05.775Z,2.10
2022-08-28T19:35:37.083Z,2.23
2022-08-28T19:38:10.894Z,2.10
2022-08-28T19:40:42.395Z,2.00
2022-08-28T19:43:16.864Z,2.30
2022-08-28T19:45:48.723Z,3.20
2022-08-28T19:48:20.139Z,2.50
2022-08-28T19:51:00.814Z,1.83
2022-08-28T19:53:32.230Z,2.10
2022-08-28T19:56:06.122Z,2.30
2022-08-28T19:58:37.640Z,2.43
2022-08-28T20:01:09.178Z,1.93
2022-08-28T20:03:40.665Z,2.90
2022-08-28T20:06:12.311Z,1.77
2022-08-28T20:08:44.281Z,1.60
2022-08-28T20:11:24.471Z,1.90
2022-08-28T20:13:57.829Z,2.17
2022-08-28T20:16:36.736Z,2.60
2022-08-28T20:19:10.467Z,1.73
2022-08-28T20:21:44.200Z,2.80
2022-08-28T20:24:20.383Z,2.10
2022-08-28T20:26:52.951Z,2.13
2022-08-28T20:29:24.823Z,2.00
2022-08-28T20:31:56.746Z,2.70
2022-08-28T20:34:28.444Z,2.07
2022-08-28T20:36:59.793Z,3.37
2022-08-28T20:39:31.151Z,2.63
2022-08-28T20:42:03.183Z,2.83
2022-08-28T20:44:35.167Z,2.73
2022-08-28T20:47:06.729Z,2.57
2022-08-28T20:49:39.906Z,2.67
2022-08-28T20:52:11.385Z,2.40
2022-08-28T20:54:43.769Z,2.57
2022-08-28T20:57:18.210Z,3.07
2022-08-28T20:59:49.681Z,2.53
2022-08-28T21:02:23.876Z,3.10
2022-08-28T21:04:55.821Z,2.67
2022-08-28T21:07:27.748Z,2.70
2022-08-28T21:10:06.890Z,2.40
2022-08-28T21:12:40.082Z,2.60
2022-08-28T21:15:12.710Z,2.20
2022-08-28T21:17:44.026Z,2.63
2022-08-28T21:20:16.058Z,2.40
2022-08-28T21:22:48.543Z,2.43
2022-08-28T21:25:21.459Z,2.40
2022-08-28T21:27:53.187Z,2.27
2022-08-28T21:30:29.564Z,2.40
2022-08-28T21:33:01.333Z,2.70
2022-08-28T21:35:32.951Z,2.50
2022-08-28T21:38:04.311Z,2.40
2022-08-28T21:40:35.763Z,2.90
2022-08-28T21:43:07.210Z,2.80
2022-08-28T21:45:38.646Z,2.47
2022-08-28T21:48:10.039Z,2.50
2022-08-28T21:50:44.698Z,3.30
2022-08-28T21:53:16.506Z,2.57
2022-08-28T21:55:53.600Z,2.20
2022-08-28T21:58:25.041Z,2.77
2022-08-28T22:00:59.394Z,2.40
2022-08-28T22:03:31.400Z,2.43
2022-08-28T22:06:02.744Z,2.33
2022-08-28T22:08:34.293Z,2.50
2022-08-28T22:11:05.739Z,2.67
2022-08-28T22:13:37.901Z,2.80
2022-08-28T22:16:09.825Z,2.60
2022-08-28T22:18:41.491Z,3.37
2022-08-28T22:21:34.190Z,3.00
2022-08-28T22:24:06.186Z,3.17
2022-08-28T22:26:37.872Z,2.97
2022-08-28T22:29:10.650Z,3.23
2022-08-28T22:31:46.124Z,2.50
2022-08-28T22:34:17.636Z,2.58
2022-08-28T22:36:48.954Z,2.87
2022-08-28T22:39:20.258Z,2.60
2022-08-28T22:41:51.557Z,2.93
2022-08-28T22:44:22.899Z,2.37
2022-08-28T22:46:54.278Z,2.87
2022-08-28T22:49:25.680Z,2.33
2022-08-28T22:51:57.041Z,3.03
2022-08-28T22:54:28.400Z,2.80
2022-08-28T22:56:59.725Z,2.50
2022-08-28T22:59:31.576Z,3.93
2022-08-28T23:02:04.069Z,2.30
2022-08-28T23:04:35.388Z,2.33
2022-08-28T23:07:06.776Z,2.67
2022-08-28T23:09:38.359Z,3.00
2022-08-28T23:12:10.258Z,2.60
2022-08-28T23:14:45.293Z,2.97
2022-08-28T23:17:19.842Z,2.67
2022-08-28T23:19:51.537Z,3.20
2022-08-28T23:22:22.852Z,2.53
2022-08-28T23:24:54.145Z,2.60
2022-08-28T23:27:36.320Z,2.70
2022-08-28T23:30:08.351Z,2.30
2022-08-28T23:32:40.261Z,2.47
2022-08-28T23:35:13.907Z,2.47
2022-08-28T23:37:48.877Z,2.20
2022-08-28T23:40:24.362Z,2.53
2022-08-28T23:42:56.523Z,3.20
2022-08-28T23:45:28.721Z,2.77
2022-08-28T23:48:01.041Z,3.10
2022-08-28T23:50:32.617Z,2.47
2022-08-28T23:53:04.585Z,2.90
2022-08-28T23:55:36.782Z,2.53
2022-08-28T23:58:08.729Z,2.63
